createdAt,value
2019-03-06T00:02:55.252Z,100017.98
2019-03-06T00:07:57.316Z,100018.91
2019-03-06T00:12:59.329Z,100015.02
2019-03-06T00:18:01.443Z,100023.77
2019-03-06T00:23:03.704Z,100021.86
2019-03-06T00:28:05.852Z,100012.05
2019-03-06T00:33:07.984Z,100023.28
2019-03-06T00:38:10.062Z,100022.34
2019-03-06T00:43:12.322Z,100024.70
2019-03-06T00:48:14.409Z,100026.59
2019-03-06T00:53:16.721Z,100028.70
2019-03-06T00:58:18.742Z,100028.94
2019-03-06T01:03:20.842Z,100028.82
2019-03-06T01:08:23.185Z,100022.57
2019-03-06T01:13:27.069Z,100025.30
2019-03-06T01:18:29.295Z,100026.91
2019-03-06T01:23:31.358Z,100020.96
2019-03-06T01:28:33.389Z,100020.50
2019-03-06T01:33:43.750Z,100026.95
2019-03-06T01:39:05.437Z,100015.73
2019-03-06T01:44:17.393Z,100026.50
2019-03-06T01:49:19.456Z,100023.05
2019-03-06T01:54:21.512Z,100027.83
2019-03-06T01:59:23.600Z,100019.05
2019-03-06T02:04:25.674Z,100017.73
2019-03-06T02:09:28.543Z,100018.11
2019-03-06T02:14:30.896Z,100021.34
2019-03-06T02:19:33.130Z,100021.69
2019-03-06T02:24:35.185Z,100020.75
2019-03-06T02:29:37.316Z,100013.87
2019-03-06T02:34:39.390Z,100017.86
2019-03-06T02:39:41.444Z,100020.23
2019-03-06T02:44:43.482Z,100015.59
2019-03-06T02:49:45.547Z,100010.03
2019-03-06T02:54:47.622Z,99999.88
2019-03-06T03:00:00.578Z,99990.89
2019-03-06T03:05:22.844Z,100003.18
2019-03-06T03:10:24.927Z,100003.41
2019-03-06T03:15:27.218Z,100004.05
2019-03-06T03:20:29.261Z,100006.65
2019-03-06T03:25:31.323Z,100001.07
2019-03-06T03:30:33.410Z,100002.91
2019-03-06T03:35:35.627Z,99994.40
2019-03-06T03:40:37.763Z,99994.88
2019-03-06T03:45:39.788Z,99991.34
2019-03-06T03:50:42.234Z,99993.36
2019-03-06T03:55:44.257Z,99991.11
2019-03-06T04:00:46.424Z,99975.59
2019-03-06T04:05:48.521Z,99983.85
2019-03-06T04:10:50.654Z,99976.81
2019-03-06T04:15:54.683Z,99979.88
2019-03-06T04:20:58.708Z,99971.88
2019-03-06T04:26:00.776Z,99964.48
2019-03-06T04:31:02.855Z,99965.09
2019-03-06T04:36:05.245Z,99963.70
2019-03-06T04:41:07.325Z,99971.52
2019-03-06T04:46:09.441Z,99969.32
2019-03-06T04:51:13.103Z,99974.77
2019-03-06T04:56:15.674Z,99969.13
2019-03-06T05:01:17.686Z,99975.64
2019-03-06T05:06:19.770Z,99977.69
2019-03-06T05:11:21.805Z,99982.98
2019-03-06T05:16:39.243Z,99992.95
2019-03-06T05:21:41.292Z,99995.05
2019-03-06T05:26:43.380Z,99987.04
2019-03-06T05:32:22.395Z,99981.33
2019-03-06T05:38:09.035Z,99970.78
2019-03-06T05:43:11.121Z,99974.88
2019-03-06T05:48:13.233Z,99968.73
2019-03-06T05:53:17.226Z,99973.53
2019-03-06T05:58:19.297Z,99961.75
2019-03-06T06:03:21.334Z,99951.53
2019-03-06T06:08:23.509Z,99941.47
2019-03-06T06:13:25.594Z,99944.06
2019-03-06T06:18:27.639Z,99934.56
2019-03-06T06:23:42.364Z,99940.58
2019-03-06T06:28:44.431Z,99951.55
2019-03-06T06:33:46.465Z,99938.97
2019-03-06T06:38:48.526Z,99940.87
2019-03-06T06:43:50.645Z,99938.53
2019-03-06T06:48:52.988Z,99935.31
2019-03-06T06:54:00.493Z,99907.12
2019-03-06T06:59:18.484Z,99898.84
2019-03-06T07:04:51.157Z,99906.66
2019-03-06T07:10:04.303Z,99907.95
2019-03-06T07:15:20.288Z,99908.58
2019-03-06T07:20:28.451Z,99897.72
2019-03-06T07:25:48.743Z,99900.39
2019-03-06T07:31:13.480Z,99891.73
2019-03-06T07:36:35.149Z,99894.01
2019-03-06T07:42:00.997Z,99885.41
2019-03-06T07:47:16.168Z,99877.26
2019-03-06T07:52:30.957Z,99862.41
2019-03-06T07:57:48.202Z,99847.42
2019-03-06T08:03:15.831Z,99838.46
2019-03-06T08:08:17.921Z,99833.97
2019-03-06T08:13:28.799Z,99828.83
2019-03-06T08:18:43.553Z,99817.14
2019-03-06T08:24:11.083Z,99813.38
2019-03-06T08:29:13.646Z,99808.28
2019-03-06T08:34:15.687Z,99811.60
2019-03-06T08:39:19.729Z,99810.67
2019-03-06T08:44:21.751Z,99812.74
2019-03-06T08:49:36.403Z,99804.86
2019-03-06T08:55:00.988Z,99800.92
2019-03-06T09:00:35.306Z,99785.14
2019-03-06T09:05:57.003Z,99781.28
2019-03-06T09:11:06.782Z,99775.03
2019-03-06T09:16:27.072Z,99766.86
2019-03-06T09:21:43.743Z,99770.00
2019-03-06T09:27:08.199Z,99770.98
2019-03-06T09:32:28.535Z,99783.85
2019-03-06T09:37:48.506Z,99773.67
2019-03-06T09:42:57.343Z,99768.08
2019-03-06T09:48:17.964Z,99761.86
2019-03-06T09:53:57.931Z,99755.09
2019-03-06T09:59:23.916Z,99741.80
2019-03-06T10:05:03.551Z,99736.33
2019-03-06T10:10:47.762Z,99729.08
2019-03-06T10:15:55.068Z,99725.67
2019-03-06T10:20:57.133Z,99714.66
2019-03-06T10:25:59.265Z,99709.73
2019-03-06T10:36:05.901Z,99702.30
2019-03-06T10:41:07.960Z,99700.92
2019-03-06T10:46:10.005Z,99697.70
2019-03-06T10:51:12.341Z,99705.28
2019-03-06T10:56:14.414Z,99712.31
2019-03-06T11:01:16.850Z,99703.88
2019-03-06T11:06:19.014Z,99708.00
2019-03-06T11:11:21.149Z,99699.95
2019-03-06T11:16:23.191Z,99695.84
2019-03-06T11:21:25.574Z,99686.97
2019-03-06T11:26:29.061Z,99676.45
2019-03-06T11:31:32.124Z,99653.79
2019-03-06T11:36:34.377Z,99646.27
2019-03-06T11:41:37.209Z,99645.03
2019-03-06T11:46:39.523Z,99649.22
2019-03-06T11:51:41.600Z,99629.03
2019-03-06T11:56:44.055Z,99632.42
2019-03-06T12:01:48.245Z,99617.50
2019-03-06T12:06:50.745Z,99600.69
2019-03-06T12:11:53.154Z,99574.66
2019-03-06T12:16:55.192Z,99577.94
2019-03-06T12:21:57.335Z,99546.44
2019-03-06T12:26:59.400Z,99539.50
2019-03-06T12:32:01.651Z,99538.86
2019-03-06T12:37:03.988Z,99534.27
2019-03-06T12:42:13.964Z,99531.12
2019-03-06T12:47:10.969Z,99523.86
2019-03-06T12:52:13.148Z,99507.37
2019-03-06T12:57:15.200Z,99495.05
2019-03-06T13:02:17.249Z,99485.36
2019-03-06T13:07:19.316Z,99481.41
2019-03-06T13:12:21.556Z,99455.22
2019-03-06T13:17:23.856Z,99441.05
2019-03-06T13:22:25.851Z,99423.98
2019-03-06T13:27:27.913Z,99410.97
2019-03-06T13:32:42.136Z,99390.91
2019-03-06T13:37:46.485Z,99382.38
2019-03-06T13:42:55.559Z,99381.89
2019-03-06T13:47:57.665Z,99355.06
2019-03-06T13:53:00.123Z,99350.77
2019-03-06T13:58:04.270Z,99343.81
2019-03-06T14:03:09.318Z,99330.86
2019-03-06T14:08:11.432Z,99320.44
2019-03-06T14:13:13.491Z,99302.65
2019-03-06T14:18:15.572Z,99293.16
2019-03-06T14:23:17.655Z,99279.52
2019-03-06T14:28:19.840Z,99271.23
2019-03-06T14:33:23.998Z,99269.69
2019-03-06T14:38:26.417Z,99264.05
2019-03-06T14:43:28.597Z,99256.39
2019-03-06T14:48:30.692Z,99256.91
2019-03-06T14:53:32.715Z,99256.93
2019-03-06T14:58:34.780Z,99243.47
2019-03-06T15:03:37.224Z,99232.88
2019-03-06T15:08:39.276Z,99219.81
2019-03-06T15:13:41.346Z,99209.87
2019-03-06T15:18:43.408Z,99197.35
2019-03-06T15:23:45.450Z,99190.59
2019-03-06T15:28:48.386Z,99178.97
2019-03-06T15:33:52.417Z,99156.16
2019-03-06T15:38:54.527Z,99154.14
2019-03-06T15:44:04.196Z,99160.53
2019-03-06T15:49:06.395Z,99152.30
2019-03-06T15:54:09.101Z,99141.70
2019-03-06T15:59:15.134Z,99134.17
2019-03-06T16:04:19.140Z,99134.00
2019-03-06T16:09:25.553Z,99134.78
2019-03-06T16:14:48.580Z,99126.63
2019-03-06T16:19:50.662Z,99116.13
2019-03-06T16:24:52.707Z,99119.31
2019-03-06T16:29:54.788Z,99106.15
2019-03-06T16:34:56.850Z,99109.64
2019-03-06T16:39:58.903Z,99101.91
2019-03-06T16:45:00.953Z,99095.63
2019-03-06T16:50:13.127Z,99082.75
2019-03-06T16:55:09.403Z,99076.89
2019-03-06T17:00:27.502Z,99077.33
2019-03-06T17:05:30.522Z,99072.75
2019-03-06T17:10:33.546Z,99059.83
2019-03-06T17:15:35.854Z,99053.42
2019-03-06T17:20:38.334Z,99042.33
2019-03-06T17:25:40.363Z,99037.70
2019-03-06T17:30:42.442Z,99025.99
2019-03-06T17:35:48.747Z,99017.41
2019-03-06T17:40:50.963Z,99019.41
2019-03-06T17:45:52.973Z,99006.42
2019-03-06T17:50:55.150Z,99011.13
2019-03-06T17:55:57.241Z,98993.02
2019-03-06T18:01:18.972Z,99002.77
2019-03-06T18:06:21.041Z,98999.13
2019-03-06T18:11:23.185Z,98992.41
2019-03-06T18:16:25.488Z,98988.67
2019-03-06T18:21:27.943Z,98985.67
2019-03-06T18:26:30.002Z,98983.64
2019-03-06T18:31:32.224Z,98977.70
2019-03-06T18:36:34.403Z,98970.56
2019-03-06T18:41:38.392Z,98972.91
2019-03-06T18:46:40.438Z,98968.53
2019-03-06T18:51:42.760Z,98961.67
2019-03-06T18:56:44.798Z,98956.97
2019-03-06T19:01:56.151Z,98960.80
2019-03-06T19:06:59.312Z,98950.73
2019-03-06T19:12:01.662Z,98947.69
2019-03-06T19:17:03.800Z,98936.23
2019-03-06T19:22:18.586Z,98937.86
2019-03-06T19:27:20.077Z,98918.85
2019-03-06T19:32:26.973Z,98915.00
2019-03-06T19:37:29.301Z,98906.39
2019-03-06T19:42:40.308Z,98892.57
2019-03-06T19:47:42.411Z,98904.94
2019-03-06T19:52:44.740Z,98893.63
2019-03-06T19:57:59.856Z,98882.52
2019-03-06T20:03:02.227Z,98875.27
2019-03-06T20:08:07.460Z,98866.50
2019-03-06T20:13:12.545Z,98878.14
2019-03-06T20:18:14.677Z,98868.03
2019-03-06T20:23:18.093Z,98864.72
2019-03-06T20:28:20.144Z,98871.01
2019-03-06T20:33:22.206Z,98859.98
2019-03-06T20:38:24.288Z,98861.47
2019-03-06T20:43:26.376Z,98856.02
2019-03-06T20:48:28.848Z,98861.75
2019-03-06T20:53:31.013Z,98860.27
2019-03-06T20:58:33.129Z,98860.66
2019-03-06T21:03:35.313Z,98855.44
2019-03-06T21:08:37.375Z,98838.97
2019-03-06T21:13:39.482Z,98880.43
2019-03-06T21:18:41.529Z,98846.85
2019-03-06T21:23:43.598Z,98831.34
2019-03-06T21:28:46.201Z,98824.23
2019-03-06T21:33:48.218Z,98815.03
2019-03-06T21:38:50.256Z,98816.66
2019-03-06T21:43:52.319Z,98809.72
2019-03-06T21:48:54.381Z,98822.30
2019-03-06T21:53:56.426Z,98817.61
2019-03-06T21:58:58.784Z,98803.40
2019-03-06T22:04:02.981Z,98810.91
2019-03-06T22:09:11.084Z,98801.23
2019-03-06T22:14:13.441Z,98780.14
2019-03-06T22:19:15.514Z,98770.94
2019-03-06T22:24:17.586Z,98766.89
2019-03-06T22:29:19.645Z,98758.70
2019-03-06T22:34:21.815Z,98754.62
2019-03-06T22:39:24.330Z,98754.48
2019-03-06T22:44:26.409Z,98748.50
2019-03-06T22:49:28.446Z,98753.55
2019-03-06T22:54:30.543Z,98735.09
2019-03-06T22:59:32.574Z,98738.23
2019-03-06T23:04:35.087Z,98727.51
2019-03-06T23:09:37.024Z,98726.72
2019-03-06T23:14:39.144Z,98726.54
2019-03-06T23:19:41.212Z,98716.16
2019-03-06T23:24:43.325Z,98716.47
2019-03-06T23:29:45.370Z,98711.97
2019-03-06T23:34:47.458Z,98713.97
2019-03-06T23:39:49.473Z,98711.10
2019-03-06T23:44:51.523Z,98697.58
2019-03-06T23:49:53.605Z,98693.17
2019-03-06T23:54:55.936Z,98684.64
2019-03-06T23:59:57.985Z,98691.73
